Погода Сесинона 2 недели

Смоленская область, Россия

22 мая-04 июня
  • 22мая
    Сегодня
    +9°
    +24°
    Ясно и безоблачно
    ВремяПогодаТемператураВлажностьДавлениеВетер, м/сВероятность осадков
    00:00Ясно и безоблачно+13°C75 %748 мм3.1 м/с2 %
    03:00Ясно и безоблачно+10°C66 %749 мм2.5 м/с2 %
    06:00Ясно и безоблачно+10°C68 %749 мм2.8 м/с2 %
    09:00Ясно и безоблачно+17°C57 %750 мм2.5 м/с2 %
    12:00Ясно и безоблачно+22°C44 %750 мм3.3 м/с2 %
    15:00Ясно и безоблачно+23°C39 %749 мм3.7 м/с2 %
    18:00Ясно и безоблачно+23°C38 %749 мм4.1 м/с4 %
    21:00Ясно и безоблачно+18°C48 %750 мм3.6 м/с2 %
  • 23мая
    Четверг
    +8°
    +22°
    Ясно и безоблачно
    ВремяПогодаТемператураВлажностьДавлениеВетер, м/сВероятность осадков
    00:00Ясно и безоблачно+12°C56 %751 мм3.3 м/с2 %
    03:00Ясно и безоблачно+10°C58 %752 мм3.7 м/с2 %
    06:00Ясно и безоблачно+10°C62 %753 мм3.5 м/с2 %
    09:00Ясно и безоблачно+16°C52 %754 мм3.8 м/с2 %
    12:00Ясно и безоблачно+20°C38 %754 мм4.8 м/с2 %
    15:00Ясно и безоблачно+21°C35 %754 мм4.2 м/с1 %
    18:00Ясно и безоблачно+21°C35 %754 мм4.3 м/с2 %
    21:00Ясно и безоблачно+17°C47 %754 мм3.5 м/с2 %
  • 24мая
    Пятница
    +7°
    +21°
    Ясно и безоблачно
    ВремяПогодаТемператураВлажностьДавлениеВетер, м/сВероятность осадков
    00:00Ясно и безоблачно+12°C56 %755 мм3.0 м/с2 %
    03:00Ясно и безоблачно+9°C64 %756 мм2.9 м/с2 %
    06:00Практически безоблачно+9°C65 %757 мм2.8 м/с2 %
    09:00Ясно и безоблачно+15°C43 %757 мм4.0 м/с2 %
    12:00Ясно и безоблачно+19°C34 %757 мм4.4 м/с2 %
    15:00Ясно и безоблачно+20°C31 %757 мм3.9 м/с2 %
    18:00Ясно и безоблачно+21°C32 %756 мм3.7 м/с2 %
    21:00Ясно и безоблачно+16°C49 %756 мм2.6 м/с2 %
  • 25мая
    Суббота
    +9°
    +24°
    Ясно и безоблачно
    ВремяПогодаТемператураВлажностьДавлениеВетер, м/сВероятность осадков
    00:00Ясно и безоблачно+11°C59 %756 мм2.9 м/с2 %
    03:00Ясно и безоблачно+8°C72 %756 мм2.4 м/с2 %
    06:00Ясно и безоблачно+9°C74 %755 мм2.7 м/с2 %
    09:00Ясно и безоблачно+16°C57 %755 мм2.1 м/с2 %
    12:00Ясно и безоблачно+21°C43 %755 мм2.3 м/с2 %
    15:00Ясно и безоблачно+23°C38 %754 мм2.5 м/с2 %
    18:00Ясно и безоблачно+23°C40 %753 мм2.1 м/с2 %
    21:00Ясно и безоблачно+17°C70 %752 мм2.3 м/с2 %
  • 26мая
    Воскресенье
    +12°
    +25°
    Небольшая облачность
    ВремяПогодаТемператураВлажностьДавлениеВетер, м/сВероятность осадков
    00:00Ясно и безоблачно+13°C79 %752 мм2.0 м/с2 %
    03:00Ясно и безоблачно+10°C87 %751 мм2.2 м/с2 %
    06:00Ясно и безоблачно+11°C82 %752 мм2.1 м/с2 %
    09:00Ясно и безоблачно+19°C62 %752 мм1.1 м/с4 %
    12:00Практически безоблачно+24°C39 %752 мм1.6 м/с17 %
    15:00Небольшая облачность+25°C39 %751 мм2.4 м/с16 %
    18:00Небольшая облачность+24°C44 %751 мм3.9 м/с34 %
    21:00Ясно и безоблачно+19°C73 %751 мм1.5 м/с17 %
Мы используем cookies
Соглашаюсь